Time;durP1;ratioP1;P1;durP2;ratioP2;P2;SDS_P1;SDS_P2;PMS_P1;PMS_P2;Temp;Humidity;BMP_temperature;BMP_pressure;BME280_temperature;BME280_humidity;BME280_pressure;Samples;Min_cycle;Max_cycle;Signal;HPM_P1;HPM_P2
2024/04/04 00:01:35;;;;;;;2.13;1.00;;;;;;;13.86;67.74;98365.78;5707463;25;20036;-60
2024/04/04 00:04:01;;;;;;;2.63;0.95;;;;;;;13.75;67.81;98362.91;5734304;24;20451;-61
2024/04/04 00:06:28;;;;;;;2.00;0.80;;;;;;;13.73;68.21;98357.03;5733557;25;20043;-62
2024/04/04 00:08:54;;;;;;;2.40;1.02;;;;;;;13.67;68.21;98352.25;5731547;24;20029;-62
2024/04/04 00:11:21;;;;;;;4.30;1.33;;;;;;;13.68;68.52;98349.13;5731231;24;20100;-61
2024/04/04 00:13:48;;;;;;;1.60;0.77;;;;;;;13.69;68.05;98353.44;5733589;24;20037;-61
2024/04/04 00:16:14;;;;;;;3.47;1.30;;;;;;;13.67;68.18;98353.03;5733092;24;20104;-62
2024/04/04 00:18:42;;;;;;;4.30;1.10;;;;;;;13.69;68.29;98360.88;5730189;25;20138;-61
2024/04/04 00:21:08;;;;;;;2.80;1.35;;;;;;;13.66;68.20;98354.19;5733002;24;20494;-62
2024/04/04 00:23:35;;;;;;;2.20;0.90;;;;;;;13.63;68.67;98352.22;5732982;24;20407;-62
2024/04/04 00:26:02;;;;;;;3.17;0.93;;;;;;;13.62;68.39;98350.63;5733393;24;20033;-62
2024/04/04 00:28:28;;;;;;;1.67;1.10;;;;;;;13.60;68.52;98347.47;5731758;24;20029;-62
2024/04/04 00:30:55;;;;;;;3.53;0.98;;;;;;;13.59;68.61;98354.91;5733308;24;20119;-61
2024/04/04 00:33:22;;;;;;;2.28;1.00;;;;;;;13.64;68.35;98342.81;5733574;25;20361;-61
2024/04/04 00:35:48;;;;;;;3.00;0.85;;;;;;;13.63;68.47;98346.72;5733141;25;20388;-61
2024/04/04 00:38:15;;;;;;;1.67;0.95;;;;;;;13.57;68.01;98345.47;5731425;25;20369;-61
2024/04/04 00:40:41;;;;;;;1.85;0.90;;;;;;;13.60;68.12;98347.47;5732549;25;20122;-62
2024/04/04 00:43:09;;;;;;;2.90;1.00;;;;;;;13.63;68.67;98344.00;5732647;25;20068;-61
2024/04/04 00:45:36;;;;;;;1.75;0.90;;;;;;;13.63;68.10;98339.31;5736967;25;20213;-62
2024/04/04 00:48:04;;;;;;;2.75;1.00;;;;;;;13.63;67.85;98330.28;5735439;25;20096;-61
2024/04/04 00:50:31;;;;;;;3.78;1.10;;;;;;;13.67;68.24;98336.59;5700858;25;20029;-62
2024/04/04 00:52:58;;;;;;;2.25;0.80;;;;;;;13.71;68.05;98329.19;5736378;25;20425;-61
2024/04/04 00:55:24;;;;;;;3.03;0.98;;;;;;;13.70;67.43;98330.38;5699116;25;20072;-62
2024/04/04 00:57:52;;;;;;;2.90;0.80;;;;;;;13.68;68.11;98323.69;5700443;25;20029;-60
2024/04/04 01:00:23;;;;;;;3.53;1.00;;;;;;;13.69;67.81;98322.53;5700917;25;20037;-61
2024/04/04 01:02:53;;;;;;;1.65;0.77;;;;;;;13.68;67.89;98316.25;5736589;24;20029;-60
2024/04/04 01:05:19;;;;;;;4.03;1.00;;;;;;;13.67;68.18;98313.88;5700444;25;20152;-61
2024/04/04 01:07:47;;;;;;;3.10;0.90;;;;;;;13.70;67.67;98313.94;5736182;25;20096;-61
2024/04/04 01:10:16;;;;;;;3.50;0.90;;;;;;;13.75;67.70;98304.56;5667727;25;20048;-62
2024/04/04 01:12:42;;;;;;;2.05;0.90;;;;;;;13.76;67.93;98317.13;5701051;25;20411;-62
2024/04/04 01:15:09;;;;;;;2.25;0.80;;;;;;;13.72;67.08;98314.34;5736172;25;20124;-61
2024/04/04 01:17:35;;;;;;;5.32;1.17;;;;;;;13.68;67.35;98310.78;5736252;25;20040;-61
2024/04/04 01:20:03;;;;;;;2.17;0.95;;;;;;;13.65;67.56;98306.03;5701368;25;20041;-61
2024/04/04 01:22:29;;;;;;;2.85;1.38;;;;;;;13.64;67.48;98307.22;5700352;25;20166;-62
2024/04/04 01:24:56;;;;;;;2.22;0.88;;;;;;;13.62;67.41;98323.25;5700864;25;20420;-61
2024/04/04 01:27:22;;;;;;;1.63;0.77;;;;;;;13.62;67.49;98317.75;5735502;25;20029;-62
2024/04/04 01:29:49;;;;;;;4.63;0.80;;;;;;;13.59;67.66;98313.03;5735971;25;20138;-61
2024/04/04 01:32:16;;;;;;;5.72;1.13;;;;;;;13.60;67.95;98311.88;5733297;24;20071;-62
2024/04/04 01:34:42;;;;;;;2.75;0.95;;;;;;;13.58;67.62;98314.19;5700348;25;20075;-62
2024/04/04 01:37:09;;;;;;;2.78;0.90;;;;;;;13.57;67.88;98304.38;5735475;25;20543;-60
2024/04/04 01:39:36;;;;;;;1.00;0.90;;;;;;;13.57;67.86;98318.06;5735787;25;20118;-60
2024/04/04 01:42:03;;;;;;;3.10;0.90;;;;;;;13.55;68.53;98314.91;5735784;25;20415;-61
2024/04/04 01:44:29;;;;;;;2.13;0.98;;;;;;;13.55;68.15;98306.69;5701013;25;20033;-62
2024/04/04 01:46:56;;;;;;;1.48;0.68;;;;;;;13.53;68.84;98306.28;5734909;25;20100;-61
2024/04/04 01:49:22;;;;;;;2.92;0.90;;;;;;;13.54;68.73;98305.13;5736116;25;20514;-62
2024/04/04 01:51:49;;;;;;;1.23;0.98;;;;;;;13.52;68.91;98304.69;5735362;25;20080;-61
2024/04/04 01:54:15;;;;;;;3.45;0.95;;;;;;;13.52;68.93;98304.69;5735998;25;20025;-63
2024/04/04 01:56:42;;;;;;;4.07;1.10;;;;;;;13.54;69.00;98291.41;5699732;25;20116;-61
2024/04/04 01:59:10;;;;;;;2.47;0.95;;;;;;;13.55;69.22;98301.22;5735858;25;20030;-62
2024/04/04 02:01:37;;;;;;;5.85;1.15;;;;;;;13.55;68.80;98293.00;5734823;24;20045;-62
2024/04/04 02:04:03;;;;;;;3.28;1.05;;;;;;;13.54;69.08;98291.41;5736208;24;20513;-62
2024/04/04 02:06:30;;;;;;;3.97;1.20;;;;;;;13.55;69.22;98284.78;5735889;25;20060;-62
2024/04/04 02:08:56;;;;;;;3.03;1.02;;;;;;;13.56;69.01;98278.91;5735749;25;20108;-62
2024/04/04 02:11:23;;;;;;;5.18;1.35;;;;;;;13.53;69.15;98282.41;5735964;25;20114;-63
2024/04/04 02:13:49;;;;;;;3.33;1.25;;;;;;;13.53;69.38;98279.69;5735988;25;20506;-62
2024/04/04 02:16:17;;;;;;;1.90;1.17;;;;;;;13.52;69.70;98288.25;5700608;25;20074;-61
2024/04/04 02:18:43;;;;;;;3.85;1.05;;;;;;;13.52;69.30;98278.09;5700462;25;20033;-61
2024/04/04 02:21:10;;;;;;;5.45;1.42;;;;;;;13.55;69.34;98276.56;5701067;25;20063;-62
2024/04/04 02:23:36;;;;;;;6.40;1.60;;;;;;;13.56;69.34;98276.19;5700981;25;20108;-62
2024/04/04 02:26:03;;;;;;;5.22;1.40;;;;;;;13.54;69.48;98272.25;5735797;25;20147;-63
2024/04/04 02:28:29;;;;;;;3.17;1.08;;;;;;;13.58;69.70;98271.16;5733646;25;20080;-63
2024/04/04 02:30:56;;;;;;;2.33;0.93;;;;;;;13.61;69.36;98280.56;5734804;25;20041;-61
2024/04/04 02:33:22;;;;;;;3.67;1.10;;;;;;;13.61;69.29;98280.56;5715007;25;20048;-62
2024/04/04 02:35:56;;;;;;;3.42;1.20;;;;;;;13.65;69.33;98278.66;5700008;25;20049;-63
2024/04/04 02:38:24;;;;;;;3.28;1.17;;;;;;;13.68;68.51;98277.09;5699213;25;20502;-62
2024/04/04 02:40:50;;;;;;;3.30;1.50;;;;;;;13.68;68.74;98274.38;5700055;25;20037;-62
2024/04/04 02:43:17;;;;;;;5.68;1.73;;;;;;;13.68;69.18;98271.63;5734935;25;20041;-61
2024/04/04 02:45:44;;;;;;;5.18;1.52;;;;;;;13.69;69.34;98267.72;5735285;25;20057;-60
2024/04/04 02:48:11;;;;;;;2.83;1.00;;;;;;;13.70;69.03;98264.59;5698234;25;20039;-61
2024/04/04 02:50:39;;;;;;;3.95;1.20;;;;;;;13.71;68.56;98260.69;5734838;25;20068;-61
2024/04/04 02:53:06;;;;;;;7.63;1.30;;;;;;;13.73;69.02;98263.06;5734735;25;20053;-60
2024/04/04 02:55:33;;;;;;;4.80;1.50;;;;;;;13.73;69.01;98268.53;5734305;25;20069;-62
2024/04/04 02:58:00;;;;;;;5.20;1.40;;;;;;;13.75;68.68;98267.00;5734014;25;20525;-61
2024/04/04 03:00:26;;;;;;;8.13;1.60;;;;;;;13.76;68.54;98265.88;5733975;24;20403;-62
2024/04/04 03:02:53;;;;;;;5.00;1.40;;;;;;;13.76;68.79;98268.59;5716213;24;20422;-60
2024/04/04 03:05:20;;;;;;;3.90;1.30;;;;;;;13.79;68.30;98269.81;5699350;25;20048;-60
2024/04/04 03:07:49;;;;;;;3.55;1.52;;;;;;;13.79;68.30;98272.53;5733827;25;20381;-60
2024/04/04 03:10:16;;;;;;;6.35;1.50;;;;;;;13.79;68.18;98275.28;5733848;25;20122;-61
2024/04/04 03:12:42;;;;;;;4.13;1.23;;;;;;;13.78;68.37;98273.72;5699842;25;20118;-62
2024/04/04 03:15:09;;;;;;;5.05;1.40;;;;;;;13.79;68.05;98273.31;5698986;25;20514;-60
2024/04/04 03:17:35;;;;;;;6.30;1.80;;;;;;;13.80;67.95;98272.16;5666332;25;20049;-60
2024/04/04 03:20:02;;;;;;;8.95;1.83;;;;;;;13.77;67.76;98275.66;5699603;25;20044;-61
2024/04/04 03:22:29;;;;;;;10.23;2.05;;;;;;;13.74;67.86;98268.16;5734155;25;20050;-61
2024/04/04 03:24:55;;;;;;;5.78;1.52;;;;;;;13.78;68.12;98265.47;5734503;25;20136;-60
2024/04/04 03:27:22;;;;;;;6.35;1.77;;;;;;;13.81;67.78;98271.00;5699989;25;20029;-60
2024/04/04 03:29:48;;;;;;;10.25;1.63;;;;;;;13.85;67.58;98266.34;5700038;25;20052;-60
2024/04/04 03:32:15;;;;;;;10.45;1.63;;;;;;;13.84;68.02;98253.78;5716267;25;20044;-60
2024/04/04 03:34:41;;;;;;;6.38;1.70;;;;;;;13.83;68.09;98263.19;5699755;25;20051;-60
2024/04/04 03:37:08;;;;;;;6.10;1.80;;;;;;;13.84;67.91;98266.72;5735484;25;20144;-60
2024/04/04 03:39:34;;;;;;;4.70;1.80;;;;;;;13.82;67.79;98266.31;5698906;25;20033;-61
2024/04/04 03:42:01;;;;;;;8.20;1.70;;;;;;;13.80;68.22;98274.13;5698235;25;20043;-60
2024/04/04 03:44:27;;;;;;;13.27;2.33;;;;;;;13.82;68.13;98280.78;5734393;25;20126;-61
2024/04/04 03:46:54;;;;;;;6.90;1.63;;;;;;;13.81;68.12;98260.03;5735097;25;20376;-60
2024/04/04 03:49:22;;;;;;;6.50;1.60;;;;;;;13.79;67.97;98254.16;5733685;25;20405;-60
2024/04/04 03:51:52;;;;;;;7.68;1.80;;;;;;;13.80;68.01;98255.72;5733673;25;20533;-61
2024/04/04 03:54:18;;;;;;;9.13;2.00;;;;;;;13.81;68.09;98257.28;5697512;25;20036;-61
2024/04/04 03:56:45;;;;;;;8.32;1.77;;;;;;;13.79;68.09;98262.38;5734062;25;20052;-60
2024/04/04 03:59:25;;;;;;;7.57;1.70;;;;;;;13.78;68.19;98255.31;5702831;25;20029;-60
2024/04/04 04:01:53;;;;;;;8.70;1.60;;;;;;;13.78;68.21;98244.34;5681796;25;20040;-59
2024/04/04 04:04:19;;;;;;;9.82;1.80;;;;;;;13.80;68.05;98249.44;5731608;24;20174;-60
2024/04/04 04:06:46;;;;;;;6.57;1.83;;;;;;;13.82;67.87;98241.63;5733796;24;20421;-61
2024/04/04 04:09:12;;;;;;;8.95;1.67;;;;;;;13.78;67.91;98247.09;5733385;24;20032;-61
2024/04/04 04:11:39;;;;;;;10.68;2.35;;;;;;;13.77;68.18;98244.72;5733461;24;20126;-60
2024/04/04 04:14:05;;;;;;;10.18;2.50;;;;;;;13.77;68.62;98250.22;5697540;25;20071;-61
2024/04/04 04:16:32;;;;;;;10.15;2.78;;;;;;;13.76;68.37;98243.94;5733277;25;20045;-60
2024/04/04 04:19:04;;;;;;;8.38;2.25;;;;;;;-145.94;100.00;66302.34;5729446;24;20169;-60
2024/04/04 04:22:22;;;;;;;9.25;1.92;;;;;;;-145.94;100.00;66302.34;5732922;24;20056;-60
2024/04/04 04:24:49;;;;;;;10.52;2.90;;;;;;;13.92;68.00;98236.25;5731022;24;20057;-61
2024/04/04 04:27:15;;;;;;;6.90;1.60;;;;;;;13.86;67.75;98237.75;5729967;24;20029;-61
2024/04/04 04:29:42;;;;;;;6.50;1.77;;;;;;;13.85;67.99;98227.97;5732739;24;20058;-61
2024/04/04 04:32:09;;;;;;;6.45;1.60;;;;;;;13.82;67.43;98241.63;5712773;24;20209;-62
2024/04/04 04:34:35;;;;;;;6.05;1.52;;;;;;;13.82;68.03;98241.63;5697725;25;20056;-62
2024/04/04 04:37:03;;;;;;;9.13;1.75;;;;;;;13.82;68.04;98252.59;5732742;25;20035;-62
2024/04/04 04:39:30;;;;;;;9.25;1.88;;;;;;;13.82;67.99;98256.13;5664766;25;20079;-61
2024/04/04 04:41:57;;;;;;;7.38;1.60;;;;;;;13.81;67.66;98249.06;5732790;25;20040;-62
2024/04/04 04:44:24;;;;;;;9.20;1.95;;;;;;;13.81;67.91;98248.28;5733449;25;20523;-62
2024/04/04 04:46:51;;;;;;;8.55;2.13;;;;;;;13.82;67.94;98242.44;5732497;25;20078;-61
2024/04/04 04:49:20;;;;;;;12.43;2.22;;;;;;;13.84;67.88;98245.56;5732463;25;20052;-62
2024/04/04 04:51:47;;;;;;;6.72;1.88;;;;;;;13.86;67.51;98243.25;5697032;25;20078;-62
2024/04/04 04:54:13;;;;;;;8.65;2.20;;;;;;;13.91;67.94;98250.31;5732496;25;20043;-62
2024/04/04 04:56:40;;;;;;;9.35;2.08;;;;;;;13.93;67.91;98251.53;5697002;25;20492;-62
2024/04/04 04:59:06;;;;;;;9.80;2.58;;;;;;;13.93;67.32;98242.50;5732108;25;20032;-62
2024/04/04 05:01:35;;;;;;;7.90;1.75;;;;;;;13.93;67.11;98237.81;5732057;25;20122;-62
2024/04/04 05:04:02;;;;;;;8.57;2.30;;;;;;;13.93;67.34;98235.06;5731708;24;20131;-62
2024/04/04 05:06:29;;;;;;;8.18;2.33;;;;;;;13.99;66.92;98235.53;5732660;24;20037;-62
2024/04/04 05:08:55;;;;;;;8.23;2.30;;;;;;;13.97;67.13;98226.91;5696237;25;20037;-62
2024/04/04 05:11:22;;;;;;;9.38;3.03;;;;;;;13.98;67.40;98227.69;5732303;24;20048;-62
2024/04/04 05:13:48;;;;;;;9.25;2.00;;;;;;;14.00;67.03;98211.66;5731970;24;20613;-63
2024/04/04 05:16:15;;;;;;;11.80;2.72;;;;;;;13.99;66.54;98201.84;5732536;24;20033;-63
2024/04/04 05:18:41;;;;;;;10.65;2.40;;;;;;;14.00;66.68;98195.22;5728899;24;20500;-59
2024/04/04 05:21:08;;;;;;;11.30;2.50;;;;;;;14.01;66.31;98200.31;5729082;25;20101;-61
2024/04/04 05:23:34;;;;;;;15.82;2.35;;;;;;;14.01;66.68;98194.03;5731657;24;20494;-61
2024/04/04 05:26:01;;;;;;;10.52;2.15;;;;;;;14.00;66.56;98190.50;5729525;25;20116;-60
2024/04/04 05:28:30;;;;;;;14.10;3.03;;;;;;;14.03;65.95;98188.97;5728794;25;20048;-61
2024/04/04 05:30:57;;;;;;;10.15;2.10;;;;;;;14.04;66.05;98180.34;5718248;25;20048;-61
2024/04/04 05:33:24;;;;;;;12.85;2.35;;;;;;;14.05;66.08;98184.66;5693979;25;20413;-62
2024/04/04 05:35:53;;;;;;;10.98;3.05;;;;;;;14.11;65.96;98185.09;5695989;25;20178;-61
2024/04/04 05:38:20;;;;;;;13.52;2.47;;;;;;;14.11;65.52;98188.63;5694938;25;20061;-62
2024/04/04 05:40:48;;;;;;;8.95;1.90;;;;;;;14.16;65.67;98190.25;5695518;25;20452;-61
2024/04/04 05:43:14;;;;;;;10.43;2.45;;;;;;;14.19;65.59;98182.06;5661768;25;20466;-61
2024/04/04 05:45:41;;;;;;;8.07;2.08;;;;;;;14.22;65.97;98188.72;5696595;25;20034;-60
2024/04/04 05:48:07;;;;;;;8.55;1.75;;;;;;;14.25;66.01;98177.00;5694699;25;20081;-61
2024/04/04 05:50:36;;;;;;;8.05;2.17;;;;;;;14.25;66.06;98179.72;5695623;25;20130;-62
2024/04/04 05:53:03;;;;;;;8.88;2.28;;;;;;;14.22;66.02;98184.03;5694313;25;20452;-61
2024/04/04 05:55:29;;;;;;;9.52;2.50;;;;;;;14.25;66.18;98191.50;5695682;25;20029;-62
2024/04/04 05:57:56;;;;;;;9.55;2.25;;;;;;;14.24;66.22;98178.94;5694983;25;20113;-60
2024/04/04 06:00:23;;;;;;;9.30;2.47;;;;;;;14.24;66.08;98189.13;5705824;24;20037;-63
2024/04/04 06:02:49;;;;;;;19.23;3.03;;;;;;;14.26;66.00;98184.03;5716708;24;20492;-62
2024/04/04 06:05:16;;;;;;;12.75;2.88;;;;;;;14.22;66.23;98181.28;5700368;25;20128;-64
2024/04/04 06:07:42;;;;;;;10.25;2.00;;;;;;;14.21;66.05;98189.88;5735572;25;20041;-62
2024/04/04 06:10:09;;;;;;;9.73;2.75;;;;;;;14.23;66.49;98171.09;5734775;25;20186;-62
2024/04/04 06:12:35;;;;;;;8.77;2.05;;;;;;;14.22;66.53;98167.56;5734801;25;20047;-63
2024/04/04 06:15:02;;;;;;;11.20;2.30;;;;;;;14.28;66.33;98178.19;5734940;25;20037;-62
2024/04/04 06:17:29;;;;;;;9.15;2.28;;;;;;;14.31;65.96;98178.19;5699067;25;20050;-62
2024/04/04 06:19:55;;;;;;;7.18;2.13;;;;;;;14.29;65.96;98169.56;5735085;25;20486;-62
2024/04/04 06:22:22;;;;;;;12.10;3.08;;;;;;;14.29;65.79;98169.56;5734884;25;20415;-63
2024/04/04 06:24:48;;;;;;;10.35;2.53;;;;;;;14.27;65.65;98177.38;5735282;25;20049;-63
2024/04/04 06:27:16;;;;;;;11.52;2.65;;;;;;;14.29;65.45;98180.53;5700397;25;20049;-63
2024/04/04 06:29:42;;;;;;;10.63;2.38;;;;;;;14.36;65.37;98182.56;5737941;25;20481;-64
2024/04/04 06:32:09;;;;;;;12.02;2.25;;;;;;;14.33;65.77;98173.16;5722715;24;20501;-65
2024/04/04 06:34:36;;;;;;;8.48;1.75;;;;;;;14.39;65.69;98187.28;5740297;24;20520;-66
2024/04/04 06:37:03;;;;;;;12.18;2.83;;;;;;;14.38;65.38;98181.00;5736378;24;20047;-65
2024/04/04 06:39:29;;;;;;;12.82;2.70;;;;;;;14.40;65.60;98186.09;5736326;25;20421;-65
2024/04/04 06:41:56;;;;;;;10.00;2.55;;;;;;;14.41;65.79;98188.47;5738397;24;20049;-65
2024/04/04 06:44:22;;;;;;;8.82;2.50;;;;;;;14.49;65.80;98194.81;5738832;24;20075;-65
2024/04/04 06:46:49;;;;;;;9.32;2.13;;;;;;;14.54;65.13;98181.53;5734618;24;20531;-63
2024/04/04 06:49:15;;;;;;;6.30;1.88;;;;;;;14.53;65.57;98184.66;5699099;24;20043;-63
2024/04/04 06:51:42;;;;;;;10.73;2.00;;;;;;;14.61;65.46;98177.25;5733277;25;20405;-63
2024/04/04 06:54:09;;;;;;;12.82;2.67;;;;;;;14.63;65.36;98180.41;5734982;24;20065;-63
2024/04/04 06:56:35;;;;;;;11.70;3.00;;;;;;;14.62;65.44;98176.09;5735565;24;20488;-65
2024/04/04 06:59:02;;;;;;;10.10;1.90;;;;;;;14.59;65.26;98185.09;5735019;24;20045;-63
2024/04/04 07:01:29;;;;;;;6.38;2.05;;;;;;;14.55;65.47;98182.31;5734382;24;20068;-63
2024/04/04 07:03:57;;;;;;;11.85;2.10;;;;;;;14.51;65.78;98190.53;5735175;24;20037;-64
2024/04/04 07:06:24;;;;;;;9.63;2.53;;;;;;;14.49;65.82;98189.31;5698948;25;20094;-63
2024/04/04 07:08:51;;;;;;;15.20;2.47;;;;;;;14.39;66.29;98188.06;5732596;25;20041;-63
2024/04/04 07:11:18;;;;;;;9.27;2.00;;;;;;;14.35;66.48;98198.22;5734689;25;20048;-64
2024/04/04 07:13:44;;;;;;;5.75;2.00;;;;;;;14.42;66.80;98194.75;5733886;25;20112;-62
2024/04/04 07:16:12;;;;;;;9.25;2.30;;;;;;;14.46;66.68;98214.78;5699091;25;20113;-63
2024/04/04 07:18:39;;;;;;;12.50;2.75;;;;;;;14.49;67.44;98198.34;5698061;25;20037;-62
2024/04/04 07:21:06;;;;;;;8.80;2.53;;;;;;;14.56;67.19;98192.13;5733951;25;20033;-62
2024/04/04 07:23:33;;;;;;;8.77;2.25;;;;;;;14.59;66.75;98204.28;5699445;25;20033;-60
2024/04/04 07:26:01;;;;;;;9.07;2.60;;;;;;;14.64;66.37;98201.97;5698889;25;20068;-60
2024/04/04 07:28:27;;;;;;;14.77;2.40;;;;;;;14.77;66.36;98202.44;5733047;25;20142;-61
2024/04/04 07:30:54;;;;;;;9.45;2.80;;;;;;;14.94;66.68;98210.00;5733862;25;20682;-61
2024/04/04 07:33:21;;;;;;;9.70;2.08;;;;;;;14.99;65.55;98206.09;5734287;24;20029;-63
2024/04/04 07:35:47;;;;;;;9.88;2.03;;;;;;;14.87;66.18;98193.47;5734457;24;20033;-64
2024/04/04 07:38:13;;;;;;;13.63;3.17;;;;;;;14.83;66.28;98187.19;5733188;24;20063;-63
2024/04/04 07:40:41;;;;;;;10.15;2.47;;;;;;;14.85;66.00;98190.31;5734137;24;20044;-63
2024/04/04 07:43:09;;;;;;;7.68;1.88;;;;;;;14.83;66.59;98198.16;5734021;24;20535;-61
2024/04/04 07:45:41;;;;;;;7.60;2.03;;;;;;;14.79;66.66;98192.66;5732492;25;20060;-62
2024/04/04 07:48:09;;;;;;;9.50;1.98;;;;;;;14.78;67.03;98193.03;5733409;24;20456;-63
2024/04/04 07:50:37;;;;;;;10.50;2.30;;;;;;;14.78;67.26;98195.78;5731713;25;20081;-63
2024/04/04 07:53:04;;;;;;;7.45;2.05;;;;;;;14.73;67.27;98207.13;5730372;25;20515;-62
2024/04/04 07:55:30;;;;;;;7.28;1.90;;;;;;;14.63;66.71;98216.06;5731357;24;20029;-62
2024/04/04 07:57:57;;;;;;;9.60;2.22;;;;;;;14.53;67.64;98206.63;5732848;24;20110;-62
2024/04/04 08:00:24;;;;;;;3.78;1.88;;;;;;;14.50;67.82;98216.41;5728087;25;20485;-62
2024/04/04 08:02:51;;;;;;;9.93;2.35;;;;;;;14.46;67.47;98210.09;5716597;24;20040;-62
2024/04/04 08:05:18;;;;;;;6.85;2.03;;;;;;;14.44;68.20;98219.88;5666235;25;20157;-63
2024/04/04 08:07:44;;;;;;;7.85;1.95;;;;;;;14.45;68.08;98215.94;5697822;25;20030;-62
2024/04/04 08:10:13;;;;;;;6.43;1.85;;;;;;;14.41;67.44;98221.38;5733261;25;20124;-62
2024/04/04 08:12:39;;;;;;;8.45;1.98;;;;;;;14.46;68.37;98228.50;5698419;25;20033;-62
2024/04/04 08:15:12;;;;;;;10.77;1.80;;;;;;;14.44;67.63;98225.34;5698439;25;20056;-62
2024/04/04 08:17:40;;;;;;;8.87;1.87;;;;;;;14.44;67.97;98225.34;5697643;25;20029;-61
2024/04/04 08:20:09;;;;;;;7.30;2.10;;;;;;;14.39;68.02;98225.69;5732964;25;20033;-62
2024/04/04 08:22:36;;;;;;;6.90;1.95;;;;;;;14.37;68.38;98223.31;5733005;25;20045;-62
2024/04/04 08:25:04;;;;;;;7.57;1.70;;;;;;;14.36;68.02;98235.47;5697582;25;20060;-62
2024/04/04 08:27:31;;;;;;;7.20;1.70;;;;;;;14.33;67.88;98227.22;5732834;25;20022;-62
2024/04/04 08:29:57;;;;;;;6.93;2.17;;;;;;;14.27;68.15;98245.16;5732972;25;20086;-63
2024/04/04 08:32:24;;;;;;;4.90;1.60;;;;;;;14.19;68.84;98247.06;5714325;24;20068;-62
2024/04/04 08:34:51;;;;;;;7.70;1.90;;;;;;;14.20;69.32;98243.94;5698358;25;20068;-62
2024/04/04 08:37:18;;;;;;;5.25;1.60;;;;;;;14.22;68.65;98246.31;5697326;25;20048;-62
2024/04/04 08:39:44;;;;;;;7.65;1.92;;;;;;;14.20;68.87;98256.88;5697647;25;20033;-63
2024/04/04 08:42:11;;;;;;;8.80;2.20;;;;;;;14.29;68.83;98251.06;5697328;25;20078;-62
2024/04/04 08:44:40;;;;;;;5.35;1.63;;;;;;;14.38;68.96;98248.81;5732761;25;20064;-63
2024/04/04 08:47:10;;;;;;;4.32;1.63;;;;;;;14.42;68.63;98252.34;5732757;25;20115;-62
2024/04/04 08:49:39;;;;;;;6.57;1.52;;;;;;;14.44;68.58;98256.31;5733009;25;20041;-62
2024/04/04 08:52:06;;;;;;;9.40;1.88;;;;;;;14.47;67.97;98272.00;5732751;25;20037;-62
2024/04/04 08:54:34;;;;;;;7.32;1.67;;;;;;;14.52;68.37;98271.69;5732688;25;20097;-62
2024/04/04 08:57:01;;;;;;;4.15;1.60;;;;;;;14.60;67.84;98252.50;5697403;25;20456;-63
2024/04/04 08:59:27;;;;;;;4.45;1.65;;;;;;;14.71;67.83;98258.88;5697981;25;20165;-64
2024/04/04 09:01:54;;;;;;;6.70;1.65;;;;;;;14.74;66.88;98263.59;5732107;25;20496;-63
2024/04/04 09:04:28;;;;;;;5.25;1.40;;;;;;;14.75;67.62;98284.38;5697376;25;20072;-63
2024/04/04 09:06:56;;;;;;;5.95;1.67;;;;;;;14.81;67.45;98269.91;5736279;25;20037;-64
2024/04/04 09:09:23;;;;;;;6.10;1.90;;;;;;;14.92;67.55;98275.47;5736526;25;20037;-64
2024/04/04 09:11:50;;;;;;;4.60;1.92;;;;;;;15.05;66.53;98282.22;5701009;25;20037;-64
2024/04/04 09:14:17;;;;;;;5.70;1.65;;;;;;;14.98;66.91;98267.66;5736366;25;20033;-64
2024/04/04 09:16:45;;;;;;;1.83;1.33;;;;;;;14.96;66.33;98267.25;5736097;25;20605;-62
2024/04/04 09:19:16;;;;;;;3.30;1.40;;;;;;;14.90;67.17;98283.31;5701596;25;20046;-64
2024/04/04 09:21:46;;;;;;;5.30;1.40;;;;;;;14.78;66.85;98281.66;5701552;25;20037;-64
2024/04/04 09:24:15;;;;;;;5.35;1.60;;;;;;;14.61;67.06;98285.06;5701377;25;20464;-65
2024/04/04 09:26:43;;;;;;;7.30;2.00;;;;;;;14.57;67.21;98277.97;5700332;25;20112;-63
2024/04/04 09:29:10;;;;;;;6.20;1.90;;;;;;;14.54;67.16;98296.00;5736225;25;20072;-65
2024/04/04 09:31:40;;;;;;;8.02;1.70;;;;;;;14.56;67.90;98292.88;5736259;25;20029;-65
2024/04/04 09:34:07;;;;;;;4.00;1.42;;;;;;;14.54;67.58;98290.50;5703691;25;20073;-63
2024/04/04 09:36:40;;;;;;;4.32;1.45;;;;;;;14.59;67.39;98289.34;5699927;25;20036;-63
2024/04/04 09:39:08;;;;;;;9.93;1.93;;;;;;;14.63;67.65;98299.19;5700770;25;20036;-63
2024/04/04 09:41:39;;;;;;;7.18;1.58;;;;;;;14.66;67.39;98300.38;5735887;25;20049;-62
2024/04/04 09:44:06;;;;;;;4.15;1.95;;;;;;;14.65;66.96;98291.34;5700618;25;20048;-63
2024/04/04 09:46:38;;;;;;;8.15;2.15;;;;;;;14.75;67.09;98295.38;5736176;25;20047;-63
2024/04/04 09:49:06;;;;;;;6.50;1.85;;;;;;;14.88;66.82;98277.44;5736452;25;20029;-63
2024/04/04 09:51:34;;;;;;;8.15;1.83;;;;;;;14.97;67.06;98291.59;5700566;25;20039;-62
2024/04/04 09:54:02;;;;;;;5.35;1.70;;;;;;;15.09;66.77;98296.78;5735185;25;20033;-63
2024/04/04 09:56:30;;;;;;;6.22;1.65;;;;;;;15.08;66.24;98297.16;5735457;25;20033;-63
2024/04/04 09:58:57;;;;;;;5.18;2.08;;;;;;;15.05;65.84;98290.44;5734922;24;20507;-63
2024/04/04 10:01:25;;;;;;;5.45;1.58;;;;;;;15.06;65.57;98303.03;5735300;24;20041;-62
2024/04/04 10:03:52;;;;;;;5.68;1.67;;;;;;;15.21;66.06;98292.09;5707807;25;20282;-61
2024/04/04 10:06:40;;;;;;;8.68;2.25;;;;;;;15.34;65.40;98299.66;5700847;25;20044;-63
2024/04/04 10:09:25;;;;;;;4.85;1.60;;;;;;;15.48;65.08;98303.63;5735325;25;20044;-62
2024/04/04 10:11:53;;;;;;;5.43;1.45;;;;;;;15.68;64.62;98300.22;5700705;25;20061;-62
2024/04/04 10:14:21;;;;;;;4.90;1.48;;;;;;;15.89;64.43;98302.25;5700341;25;20029;-62
2024/04/04 10:16:52;;;;;;;6.32;1.73;;;;;;;16.03;63.89;98285.78;5734513;25;20079;-63
2024/04/04 10:19:24;;;;;;;6.78;1.60;;;;;;;16.18;62.91;98285.81;5735435;25;20621;-63
2024/04/04 10:21:51;;;;;;;4.57;1.35;;;;;;;16.29;62.74;98290.13;5700286;25;20091;-62
2024/04/04 10:24:28;;;;;;;4.38;1.58;;;;;;;16.30;62.70;98286.19;5735086;25;20037;-62
2024/04/04 10:27:00;;;;;;;3.45;1.45;;;;;;;16.29;62.22;98281.09;5735378;25;20029;-63
2024/04/04 10:29:30;;;;;;;3.92;1.55;;;;;;;16.28;62.69;98288.56;5700368;25;20481;-63
2024/04/04 10:32:06;;;;;;;4.90;1.55;;;;;;;16.31;62.25;98278.72;5734735;24;20033;-62
2024/04/04 10:34:33;;;;;;;5.38;1.30;;;;;;;16.39;62.88;98263.03;5735166;25;20045;-63
2024/04/04 10:37:00;;;;;;;5.45;1.60;;;;;;;16.33;62.83;98257.88;5734819;25;20539;-62
2024/04/04 10:39:26;;;;;;;4.18;1.38;;;;;;;16.33;62.85;98268.91;5700018;25;20145;-63
2024/04/04 10:41:57;;;;;;;5.45;1.35;;;;;;;16.18;63.51;98277.56;5734115;25;20603;-62
2024/04/04 10:44:25;;;;;;;3.97;1.63;;;;;;;16.15;64.39;98287.34;5734905;25;20074;-62
2024/04/04 10:46:53;;;;;;;3.33;1.50;;;;;;;16.15;63.21;98279.09;5734997;25;20120;-62
2024/04/04 10:49:27;;;;;;;6.65;1.73;;;;;;;16.00;64.15;98286.56;5699388;25;20037;-62
2024/04/04 10:51:55;;;;;;;;;;;;;;;15.94;63.30;98284.56;5735561;25;20037;-62
2024/04/04 10:54:22;;;;;;;6.85;1.67;;;;;;;15.70;63.83;98278.63;5698373;25;20262;-62
2024/04/04 10:56:49;;;;;;;4.45;1.33;;;;;;;15.59;64.97;98277.78;5700137;25;20076;-63
2024/04/04 10:59:18;;;;;;;3.72;1.40;;;;;;;15.58;64.89;98297.38;5699629;25;20036;-62
2024/04/04 11:01:48;;;;;;;2.78;1.10;;;;;;;15.58;64.88;98298.16;5734798;25;20496;-62
2024/04/04 11:04:18;;;;;;;3.92;1.50;;;;;;;15.58;65.07;98287.19;5700046;25;20128;-62
2024/04/04 11:06:46;;;;;;;2.65;1.20;;;;;;;15.59;64.64;98294.28;5699632;25;20111;-63
2024/04/04 11:09:15;;;;;;;3.38;1.33;;;;;;;15.53;64.32;98289.53;5698826;25;20048;-63
2024/04/04 11:11:43;;;;;;;4.20;1.02;;;;;;;15.38;64.27;98296.91;5734989;25;20070;-63
2024/04/04 11:14:11;;;;;;;4.68;1.60;;;;;;;15.23;64.95;98289.75;5734360;25;20033;-62
2024/04/04 11:16:38;;;;;;;4.65;1.45;;;;;;;15.11;65.00;98285.41;5734477;25;20036;-63
2024/04/04 11:19:09;;;;;;;6.05;1.73;;;;;;;14.94;65.81;98292.34;5666778;25;20048;-62
2024/04/04 11:21:36;;;;;;;5.55;1.70;;;;;;;14.91;65.61;98293.13;5734104;25;20180;-61
2024/04/04 11:24:03;;;;;;;4.53;1.52;;;;;;;14.86;66.12;98290.72;5699188;25;20123;-62
2024/04/04 11:26:30;;;;;;;8.60;1.48;;;;;;;14.86;65.80;98293.47;5735547;25;20100;-62
2024/04/04 11:29:00;;;;;;;3.92;1.50;;;;;;;14.83;66.06;98291.50;5733669;25;20146;-63
2024/04/04 11:31:27;;;;;;;4.05;1.30;;;;;;;14.78;65.96;98300.09;5703560;25;20033;-62
2024/04/04 11:33:53;;;;;;;2.38;1.33;;;;;;;14.74;66.14;98294.59;5735535;24;20040;-62